<?xml version="1.0" encoding="UTF-8"?>
<gpx xmlns="http://www.topografix.com/GPX/1/1" xmlns:gpsies="http://www.gpsies.com/GPX/1/0" creator="GPSies http://www.gpsies.com - 2017-&amp;#1047;&amp;#1072;&amp;#1082;&amp;#1086;&amp;#1074;&amp;#1099;&amp;#1088;&amp;#1080;&amp;#1089;&amp;#1090;&amp;#1099;&amp;#1081;-200" version="1.1" xmlns:xsi="http://www.w3.org/2001/XMLSchema-instance" xsi:schemaLocation="http://www.topografix.com/GPX/1/1 http://www.topografix.com/GPX/1/1/gpx.xsd http://www.gpsies.com/GPX/1/0 http://www.gpsies.com/gpsies.xsd">
  <metadata>
    <name>2017-Заковыристый-200</name>
    <author>
      <name>U_N_E</name>
      <link href="http://www.gpsies.com/mapUser.do?username=U_N_E">
        <text>U_N_E on GPSies.com</text>
        <type>GPSiesUserOnWeb</type>
      </link>
    </author>
    <link href="http://www.gpsies.com/map.do?fileId=ejzzuehtqeiibdhs">
      <text>2017-Заковыристый-200 on GPSies.com</text>
      <type>trackOnWeb</type>
    </link>
    <time>2017-03-22T20:35:19Z</time>
    <extensions>
      <gpsies:property>one-way trip</gpsies:property>
      <gpsies:trackLengthMeter>201657.98671335023</gpsies:trackLengthMeter>
      <gpsies:totalAscentMeter>1024.0</gpsies:totalAscentMeter>
      <gpsies:totalDescentMeter>1076.0</gpsies:totalDescentMeter>
      <gpsies:minHeightMeter>91.0</gpsies:minHeightMeter>
      <gpsies:maxHeightMeter>178.0</gpsies:maxHeightMeter>
    </extensions>
  </metadata>
  <trk>
    <name>2017-Заковыристый-200 on GPSies.com</name>
    <link href="http://www.gpsies.com/map.do?fileId=ejzzuehtqeiibdhs">
      <type>trackOnWeb</type>
    </link>
    <link href="http://www.gpsies.com/charts/ej/map/ejzzuehtqeiibdhs_map.png">
      <type>elevationChartUrlMap</type>
    </link>
    <link href="http://www.gpsies.com/charts/ej/mapThumb/ejzzuehtqeiibdhs_mapThumb.png">
      <type>elevationChartUrlMapThumb</type>
    </link>
    <link href="http://www.gpsies.com/charts/ej/tab/ejzzuehtqeiibdhs_tab.png">
      <type>elevationChartUrlTab</type>
    </link>
    <trkseg>
      <trkpt lat="51.66124270" lon="39.20087090">
        <ele>158.00000</ele>
        <time>2010-01-01T00:00:00Z</time>
      </trkpt>
      <trkpt lat="51.66692590" lon="39.19385430">
        <ele>153.00000</ele>
        <time>2010-01-01T00:04:46Z</time>
      </trkpt>
      <trkpt lat="51.66882900" lon="39.19151540">
        <ele>153.00000</ele>
        <time>2010-01-01T00:06:22Z</time>
      </trkpt>
      <trkpt lat="51.67372610" lon="39.18557160">
        <ele>155.00000</ele>
        <time>2010-01-01T00:10:27Z</time>
      </trkpt>
      <trkpt lat="51.67424510" lon="39.18548580">
        <ele>154.00000</ele>
        <time>2010-01-01T00:10:48Z</time>
      </trkpt>
      <trkpt lat="51.68232140" lon="39.18456310">
        <ele>156.00000</ele>
        <time>2010-01-01T00:16:12Z</time>
      </trkpt>
      <trkpt lat="51.68958500" lon="39.18379060">
        <ele>152.00000</ele>
        <time>2010-01-01T00:21:04Z</time>
      </trkpt>
      <trkpt lat="51.69440010" lon="39.18308250">
        <ele>140.00000</ele>
        <time>2010-01-01T00:24:17Z</time>
      </trkpt>
      <trkpt lat="51.70030520" lon="39.18237440">
        <ele>155.00000</ele>
        <time>2010-01-01T00:28:14Z</time>
      </trkpt>
      <trkpt lat="51.70253930" lon="39.18215990">
        <ele>154.00000</ele>
        <time>2010-01-01T00:29:44Z</time>
      </trkpt>
      <trkpt lat="51.70339040" lon="39.18188090">
        <ele>155.00000</ele>
        <time>2010-01-01T00:30:19Z</time>
      </trkpt>
      <trkpt lat="51.70872260" lon="39.18138740">
        <ele>160.00000</ele>
        <time>2010-01-01T00:33:52Z</time>
      </trkpt>
      <trkpt lat="51.71115580" lon="39.18095820">
        <ele>162.00000</ele>
        <time>2010-01-01T00:35:30Z</time>
      </trkpt>
      <trkpt lat="51.71285760" lon="39.18078660">
        <ele>159.00000</ele>
        <time>2010-01-01T00:36:39Z</time>
      </trkpt>
      <trkpt lat="51.71911920" lon="39.17997120">
        <ele>167.00000</ele>
        <time>2010-01-01T00:40:50Z</time>
      </trkpt>
      <trkpt lat="51.72171140" lon="39.17962780">
        <ele>168.00000</ele>
        <time>2010-01-01T00:42:34Z</time>
      </trkpt>
      <trkpt lat="51.72646990" lon="39.17909140">
        <ele>169.00000</ele>
        <time>2010-01-01T00:45:45Z</time>
      </trkpt>
      <trkpt lat="51.72849010" lon="39.17904850">
        <ele>171.00000</ele>
        <time>2010-01-01T00:47:06Z</time>
      </trkpt>
      <trkpt lat="51.73023110" lon="39.17926310">
        <ele>166.00000</ele>
        <time>2010-01-01T00:48:16Z</time>
      </trkpt>
      <trkpt lat="51.73331430" lon="39.18031450">
        <ele>166.00000</ele>
        <time>2010-01-01T00:50:22Z</time>
      </trkpt>
      <trkpt lat="51.73639730" lon="39.18130150">
        <ele>169.00000</ele>
        <time>2010-01-01T00:52:28Z</time>
      </trkpt>
      <trkpt lat="51.74096830" lon="39.18288940">
        <ele>170.00000</ele>
        <time>2010-01-01T00:55:35Z</time>
      </trkpt>
      <trkpt lat="51.74692050" lon="39.18494930">
        <ele>171.00000</ele>
        <time>2010-01-01T00:59:39Z</time>
      </trkpt>
      <trkpt lat="51.75497060" lon="39.18767450">
        <ele>167.00000</ele>
        <time>2010-01-01T01:05:08Z</time>
      </trkpt>
      <trkpt lat="51.75845060" lon="39.18900480">
        <ele>170.00000</ele>
        <time>2010-01-01T01:07:31Z</time>
      </trkpt>
      <trkpt lat="51.76600730" lon="39.19145100">
        <ele>166.00000</ele>
        <time>2010-01-01T01:12:40Z</time>
      </trkpt>
      <trkpt lat="51.77195620" lon="39.19355390">
        <ele>163.00000</ele>
        <time>2010-01-01T01:16:43Z</time>
      </trkpt>
      <trkpt lat="51.77952390" lon="39.19617170">
        <ele>162.00000</ele>
        <time>2010-01-01T01:21:53Z</time>
      </trkpt>
      <trkpt lat="51.78661250" lon="39.19861790">
        <ele>163.00000</ele>
        <time>2010-01-01T01:26:43Z</time>
      </trkpt>
      <trkpt lat="51.78857700" lon="39.19934740">
        <ele>164.00000</ele>
        <time>2010-01-01T01:28:04Z</time>
      </trkpt>
      <trkpt lat="51.79147040" lon="39.19999120">
        <ele>159.00000</ele>
        <time>2010-01-01T01:30:01Z</time>
      </trkpt>
      <trkpt lat="51.79863680" lon="39.20209400">
        <ele>161.00000</ele>
        <time>2010-01-01T01:34:52Z</time>
      </trkpt>
      <trkpt lat="51.80219300" lon="39.20342440">
        <ele>164.00000</ele>
        <time>2010-01-01T01:37:19Z</time>
      </trkpt>
      <trkpt lat="51.81410690" lon="39.20750140">
        <ele>159.00000</ele>
        <time>2010-01-01T01:45:26Z</time>
      </trkpt>
      <trkpt lat="51.82357750" lon="39.21063420">
        <ele>150.00000</ele>
        <time>2010-01-01T01:51:53Z</time>
      </trkpt>
      <trkpt lat="51.83018180" lon="39.21269410">
        <ele>162.00000</ele>
        <time>2010-01-01T01:56:22Z</time>
      </trkpt>
      <trkpt lat="51.83492890" lon="39.21393870">
        <ele>163.00000</ele>
        <time>2010-01-01T01:59:35Z</time>
      </trkpt>
      <trkpt lat="51.83575100" lon="39.21488280">
        <ele>163.00000</ele>
        <time>2010-01-01T02:00:15Z</time>
      </trkpt>
      <trkpt lat="51.83665260" lon="39.21647070">
        <ele>167.00000</ele>
        <time>2010-01-01T02:01:08Z</time>
      </trkpt>
      <trkpt lat="51.83742160" lon="39.21874520">
        <ele>175.00000</ele>
        <time>2010-01-01T02:02:13Z</time>
      </trkpt>
      <trkpt lat="51.83755420" lon="39.22063350">
        <ele>178.00000</ele>
        <time>2010-01-01T02:03:00Z</time>
      </trkpt>
      <trkpt lat="51.83736850" lon="39.22196380">
        <ele>177.00000</ele>
        <time>2010-01-01T02:03:33Z</time>
      </trkpt>
      <trkpt lat="51.83508800" lon="39.22913070">
        <ele>174.00000</ele>
        <time>2010-01-01T02:06:53Z</time>
      </trkpt>
      <trkpt lat="51.83251560" lon="39.23689840">
        <ele>171.00000</ele>
        <time>2010-01-01T02:10:31Z</time>
      </trkpt>
      <trkpt lat="51.83100400" lon="39.24088950">
        <ele>161.00000</ele>
        <time>2010-01-01T02:12:26Z</time>
      </trkpt>
      <trkpt lat="51.82859050" lon="39.24513810">
        <ele>146.00000</ele>
        <time>2010-01-01T02:14:49Z</time>
      </trkpt>
      <trkpt lat="51.82622990" lon="39.24775600">
        <ele>154.00000</ele>
        <time>2010-01-01T02:16:44Z</time>
      </trkpt>
      <trkpt lat="51.82384270" lon="39.24942970">
        <ele>156.00000</ele>
        <time>2010-01-01T02:18:28Z</time>
      </trkpt>
      <trkpt lat="51.82140230" lon="39.25054550">
        <ele>155.00000</ele>
        <time>2010-01-01T02:20:09Z</time>
      </trkpt>
      <trkpt lat="51.81784760" lon="39.25131790">
        <ele>151.00000</ele>
        <time>2010-01-01T02:22:33Z</time>
      </trkpt>
      <trkpt lat="51.81386820" lon="39.25209040">
        <ele>148.00000</ele>
        <time>2010-01-01T02:25:13Z</time>
      </trkpt>
      <trkpt lat="51.80853510" lon="39.25294870">
        <ele>125.00000</ele>
        <time>2010-01-01T02:28:48Z</time>
      </trkpt>
      <trkpt lat="51.80670420" lon="39.25342080">
        <ele>125.00000</ele>
        <time>2010-01-01T02:30:02Z</time>
      </trkpt>
      <trkpt lat="51.80182150" lon="39.25440780">
        <ele>105.00000</ele>
        <time>2010-01-01T02:33:19Z</time>
      </trkpt>
      <trkpt lat="51.79821210" lon="39.25633900">
        <ele>106.00000</ele>
        <time>2010-01-01T02:35:51Z</time>
      </trkpt>
      <trkpt lat="51.79616850" lon="39.25878520">
        <ele>95.000000</ele>
        <time>2010-01-01T02:37:33Z</time>
      </trkpt>
      <trkpt lat="51.79269140" lon="39.26771160">
        <ele>91.000000</ele>
        <time>2010-01-01T02:41:54Z</time>
      </trkpt>
      <trkpt lat="51.79011660" lon="39.27612300">
        <ele>97.000000</ele>
        <time>2010-01-01T02:45:47Z</time>
      </trkpt>
      <trkpt lat="51.78849730" lon="39.28041450">
        <ele>97.000000</ele>
        <time>2010-01-01T02:47:51Z</time>
      </trkpt>
      <trkpt lat="51.78655940" lon="39.28466320">
        <ele>95.000000</ele>
        <time>2010-01-01T02:50:02Z</time>
      </trkpt>
      <trkpt lat="51.78398430" lon="39.28942680">
        <ele>95.000000</ele>
        <time>2010-01-01T02:52:39Z</time>
      </trkpt>
      <trkpt lat="51.78077180" lon="39.29423330">
        <ele>97.000000</ele>
        <time>2010-01-01T02:55:34Z</time>
      </trkpt>
      <trkpt lat="51.77739980" lon="39.29800980">
        <ele>95.000000</ele>
        <time>2010-01-01T02:58:18Z</time>
      </trkpt>
      <trkpt lat="51.77485060" lon="39.29994100">
        <ele>106.00000</ele>
        <time>2010-01-01T03:00:11Z</time>
      </trkpt>
      <trkpt lat="51.77153130" lon="39.30182930">
        <ele>107.00000</ele>
        <time>2010-01-01T03:02:32Z</time>
      </trkpt>
      <trkpt lat="51.76855690" lon="39.30367460">
        <ele>107.00000</ele>
        <time>2010-01-01T03:04:39Z</time>
      </trkpt>
      <trkpt lat="51.76422780" lon="39.30573460">
        <ele>107.00000</ele>
        <time>2010-01-01T03:07:40Z</time>
      </trkpt>
      <trkpt lat="51.76141230" lon="39.30676460">
        <ele>108.00000</ele>
        <time>2010-01-01T03:09:35Z</time>
      </trkpt>
      <trkpt lat="51.75681690" lon="39.30672160">
        <ele>108.00000</ele>
        <time>2010-01-01T03:12:39Z</time>
      </trkpt>
      <trkpt lat="51.75168960" lon="39.30590620">
        <ele>114.00000</ele>
        <time>2010-01-01T03:16:06Z</time>
      </trkpt>
      <trkpt lat="51.74948440" lon="39.30552000">
        <ele>114.00000</ele>
        <time>2010-01-01T03:17:34Z</time>
      </trkpt>
      <trkpt lat="51.74751830" lon="39.30573460">
        <ele>115.00000</ele>
        <time>2010-01-01T03:18:53Z</time>
      </trkpt>
      <trkpt lat="51.74539260" lon="39.30624960">
        <ele>114.00000</ele>
        <time>2010-01-01T03:20:19Z</time>
      </trkpt>
      <trkpt lat="51.74474830" lon="39.30628180">
        <ele>117.00000</ele>
        <time>2010-01-01T03:20:45Z</time>
      </trkpt>
      <trkpt lat="51.74413710" lon="39.30649630">
        <ele>115.00000</ele>
        <time>2010-01-01T03:21:10Z</time>
      </trkpt>
      <trkpt lat="51.74359240" lon="39.30628180">
        <ele>118.00000</ele>
        <time>2010-01-01T03:21:33Z</time>
      </trkpt>
      <trkpt lat="51.74286830" lon="39.30538050">
        <ele>121.00000</ele>
        <time>2010-01-01T03:22:09Z</time>
      </trkpt>
      <trkpt lat="51.74245640" lon="39.30511230">
        <ele>121.00000</ele>
        <time>2010-01-01T03:22:27Z</time>
      </trkpt>
      <trkpt lat="51.74178540" lon="39.30518740">
        <ele>117.00000</ele>
        <time>2010-01-01T03:22:54Z</time>
      </trkpt>
      <trkpt lat="51.74192490" lon="39.31174270">
        <ele>113.00000</ele>
        <time>2010-01-01T03:25:36Z</time>
      </trkpt>
      <trkpt lat="51.74212420" lon="39.31453220">
        <ele>118.00000</ele>
        <time>2010-01-01T03:26:46Z</time>
      </trkpt>
      <trkpt lat="51.74250960" lon="39.32043310">
        <ele>113.00000</ele>
        <time>2010-01-01T03:29:13Z</time>
      </trkpt>
      <trkpt lat="51.74278860" lon="39.32290070">
        <ele>108.00000</ele>
        <time>2010-01-01T03:30:15Z</time>
      </trkpt>
      <trkpt lat="51.74304100" lon="39.32463880">
        <ele>108.00000</ele>
        <time>2010-01-01T03:31:00Z</time>
      </trkpt>
      <trkpt lat="51.74312070" lon="39.32538980">
        <ele>106.00000</ele>
        <time>2010-01-01T03:31:18Z</time>
      </trkpt>
      <trkpt lat="51.74325360" lon="39.32594770">
        <ele>106.00000</ele>
        <time>2010-01-01T03:31:33Z</time>
      </trkpt>
      <trkpt lat="51.74274870" lon="39.32687040">
        <ele>106.00000</ele>
        <time>2010-01-01T03:32:04Z</time>
      </trkpt>
      <trkpt lat="51.74227040" lon="39.32783600">
        <ele>105.00000</ele>
        <time>2010-01-01T03:32:34Z</time>
      </trkpt>
      <trkpt lat="51.74317390" lon="39.32970280">
        <ele>106.00000</ele>
        <time>2010-01-01T03:33:33Z</time>
      </trkpt>
      <trkpt lat="51.74432980" lon="39.33232060">
        <ele>104.00000</ele>
        <time>2010-01-01T03:34:53Z</time>
      </trkpt>
      <trkpt lat="51.74512690" lon="39.33526030">
        <ele>102.00000</ele>
        <time>2010-01-01T03:36:12Z</time>
      </trkpt>
      <trkpt lat="51.74537930" lon="39.33828590">
        <ele>102.00000</ele>
        <time>2010-01-01T03:37:28Z</time>
      </trkpt>
      <trkpt lat="51.74556530" lon="39.33989520">
        <ele>102.00000</ele>
        <time>2010-01-01T03:38:09Z</time>
      </trkpt>
      <trkpt lat="51.74475490" lon="39.34021710">
        <ele>101.00000</ele>
        <time>2010-01-01T03:38:42Z</time>
      </trkpt>
      <trkpt lat="51.74343960" lon="39.34109680">
        <ele>98.000000</ele>
        <time>2010-01-01T03:39:39Z</time>
      </trkpt>
      <trkpt lat="51.74272210" lon="39.34171910">
        <ele>98.000000</ele>
        <time>2010-01-01T03:40:12Z</time>
      </trkpt>
      <trkpt lat="51.74118090" lon="39.34382200">
        <ele>96.000000</ele>
        <time>2010-01-01T03:41:32Z</time>
      </trkpt>
      <trkpt lat="51.74051650" lon="39.34476610">
        <ele>98.000000</ele>
        <time>2010-01-01T03:42:08Z</time>
      </trkpt>
      <trkpt lat="51.73962630" lon="39.34583900">
        <ele>97.000000</ele>
        <time>2010-01-01T03:42:52Z</time>
      </trkpt>
      <trkpt lat="51.73898850" lon="39.34669730">
        <ele>101.00000</ele>
        <time>2010-01-01T03:43:25Z</time>
      </trkpt>
      <trkpt lat="51.73916120" lon="39.34755560">
        <ele>101.00000</ele>
        <time>2010-01-01T03:43:48Z</time>
      </trkpt>
      <trkpt lat="51.73977240" lon="39.34993740">
        <ele>103.00000</ele>
        <time>2010-01-01T03:44:52Z</time>
      </trkpt>
      <trkpt lat="51.74013120" lon="39.35255520">
        <ele>100.00000</ele>
        <time>2010-01-01T03:45:58Z</time>
      </trkpt>
      <trkpt lat="51.74010460" lon="39.35339210">
        <ele>102.00000</ele>
        <time>2010-01-01T03:46:19Z</time>
      </trkpt>
      <trkpt lat="51.74046340" lon="39.35429330">
        <ele>102.00000</ele>
        <time>2010-01-01T03:46:46Z</time>
      </trkpt>
      <trkpt lat="51.74099490" lon="39.35643910">
        <ele>104.00000</ele>
        <time>2010-01-01T03:47:43Z</time>
      </trkpt>
      <trkpt lat="51.74110120" lon="39.35697550">
        <ele>105.00000</ele>
        <time>2010-01-01T03:47:57Z</time>
      </trkpt>
      <trkpt lat="51.74219070" lon="39.36218970">
        <ele>112.00000</ele>
        <time>2010-01-01T03:50:13Z</time>
      </trkpt>
      <trkpt lat="51.74278860" lon="39.36489340">
        <ele>113.00000</ele>
        <time>2010-01-01T03:51:24Z</time>
      </trkpt>
      <trkpt lat="51.74293470" lon="39.36618080">
        <ele>117.00000</ele>
        <time>2010-01-01T03:51:57Z</time>
      </trkpt>
      <trkpt lat="51.74367880" lon="39.36869140">
        <ele>119.00000</ele>
        <time>2010-01-01T03:53:06Z</time>
      </trkpt>
      <trkpt lat="51.74604360" lon="39.37658780">
        <ele>123.00000</ele>
        <time>2010-01-01T03:56:43Z</time>
      </trkpt>
      <trkpt lat="51.74718620" lon="39.38036440">
        <ele>117.00000</ele>
        <time>2010-01-01T03:58:27Z</time>
      </trkpt>
      <trkpt lat="51.74727920" lon="39.38075060">
        <ele>118.00000</ele>
        <time>2010-01-01T03:58:38Z</time>
      </trkpt>
      <trkpt lat="51.74632260" lon="39.38148020">
        <ele>118.00000</ele>
        <time>2010-01-01T03:59:20Z</time>
      </trkpt>
      <trkpt lat="51.74729240" lon="39.38489190">
        <ele>119.00000</ele>
        <time>2010-01-01T04:00:53Z</time>
      </trkpt>
      <trkpt lat="51.74899290" lon="39.39150090">
        <ele>124.00000</ele>
        <time>2010-01-01T04:03:50Z</time>
      </trkpt>
      <trkpt lat="51.74945790" lon="39.39315310">
        <ele>120.00000</ele>
        <time>2010-01-01T04:04:35Z</time>
      </trkpt>
      <trkpt lat="51.74932500" lon="39.39448350">
        <ele>123.00000</ele>
        <time>2010-01-01T04:05:09Z</time>
      </trkpt>
      <trkpt lat="51.75048080" lon="39.39720860">
        <ele>126.00000</ele>
        <time>2010-01-01T04:06:31Z</time>
      </trkpt>
      <trkpt lat="51.75283200" lon="39.40293780">
        <ele>120.00000</ele>
        <time>2010-01-01T04:09:21Z</time>
      </trkpt>
      <trkpt lat="51.75404080" lon="39.40619940">
        <ele>120.00000</ele>
        <time>2010-01-01T04:10:55Z</time>
      </trkpt>
      <trkpt lat="51.75442600" lon="39.40718650">
        <ele>118.00000</ele>
        <time>2010-01-01T04:11:24Z</time>
      </trkpt>
      <trkpt lat="51.75530270" lon="39.41167110">
        <ele>122.00000</ele>
        <time>2010-01-01T04:13:21Z</time>
      </trkpt>
      <trkpt lat="51.75567460" lon="39.41345210">
        <ele>119.00000</ele>
        <time>2010-01-01T04:14:07Z</time>
      </trkpt>
      <trkpt lat="51.75625900" lon="39.41632740">
        <ele>118.00000</ele>
        <time>2010-01-01T04:15:22Z</time>
      </trkpt>
      <trkpt lat="51.75640510" lon="39.42119830">
        <ele>117.00000</ele>
        <time>2010-01-01T04:17:23Z</time>
      </trkpt>
      <trkpt lat="51.75660430" lon="39.42214250">
        <ele>116.00000</ele>
        <time>2010-01-01T04:17:48Z</time>
      </trkpt>
      <trkpt lat="51.75667080" lon="39.42465300">
        <ele>115.00000</ele>
        <time>2010-01-01T04:18:50Z</time>
      </trkpt>
      <trkpt lat="51.75629890" lon="39.42913770">
        <ele>116.00000</ele>
        <time>2010-01-01T04:20:42Z</time>
      </trkpt>
      <trkpt lat="51.75611290" lon="39.43083280">
        <ele>116.00000</ele>
        <time>2010-01-01T04:21:25Z</time>
      </trkpt>
      <trkpt lat="51.75539560" lon="39.43254940">
        <ele>119.00000</ele>
        <time>2010-01-01T04:22:16Z</time>
      </trkpt>
      <trkpt lat="51.75427990" lon="39.43576810">
        <ele>120.00000</ele>
        <time>2010-01-01T04:23:48Z</time>
      </trkpt>
      <trkpt lat="51.75239360" lon="39.43933010">
        <ele>121.00000</ele>
        <time>2010-01-01T04:25:44Z</time>
      </trkpt>
      <trkpt lat="51.75058700" lon="39.44862120">
        <ele>125.00000</ele>
        <time>2010-01-01T04:29:45Z</time>
      </trkpt>
      <trkpt lat="51.74941800" lon="39.44829940">
        <ele>126.00000</ele>
        <time>2010-01-01T04:30:33Z</time>
      </trkpt>
      <trkpt lat="51.74915230" lon="39.44862120">
        <ele>132.00000</ele>
        <time>2010-01-01T04:30:46Z</time>
      </trkpt>
      <trkpt lat="51.74803640" lon="39.45443630">
        <ele>137.00000</ele>
        <time>2010-01-01T04:33:17Z</time>
      </trkpt>
      <trkpt lat="51.74697360" lon="39.45999380">
        <ele>140.00000</ele>
        <time>2010-01-01T04:35:41Z</time>
      </trkpt>
      <trkpt lat="51.74613660" lon="39.46443550">
        <ele>139.00000</ele>
        <time>2010-01-01T04:37:36Z</time>
      </trkpt>
      <trkpt lat="51.74374520" lon="39.46694610">
        <ele>137.00000</ele>
        <time>2010-01-01T04:39:30Z</time>
      </trkpt>
      <trkpt lat="51.74304100" lon="39.46774000">
        <ele>136.00000</ele>
        <time>2010-01-01T04:40:04Z</time>
      </trkpt>
      <trkpt lat="51.74322700" lon="39.46988580">
        <ele>136.00000</ele>
        <time>2010-01-01T04:40:58Z</time>
      </trkpt>
      <trkpt lat="51.74346620" lon="39.47168820">
        <ele>134.00000</ele>
        <time>2010-01-01T04:41:44Z</time>
      </trkpt>
      <trkpt lat="51.74343960" lon="39.47293280">
        <ele>133.00000</ele>
        <time>2010-01-01T04:42:15Z</time>
      </trkpt>
      <trkpt lat="51.74326690" lon="39.47338340">
        <ele>137.00000</ele>
        <time>2010-01-01T04:42:28Z</time>
      </trkpt>
      <trkpt lat="51.74261580" lon="39.47366230">
        <ele>137.00000</ele>
        <time>2010-01-01T04:42:55Z</time>
      </trkpt>
      <trkpt lat="51.74136690" lon="39.47316880">
        <ele>137.00000</ele>
        <time>2010-01-01T04:43:46Z</time>
      </trkpt>
      <trkpt lat="51.74078230" lon="39.47432750">
        <ele>137.00000</ele>
        <time>2010-01-01T04:44:23Z</time>
      </trkpt>
      <trkpt lat="51.74144660" lon="39.47619430">
        <ele>137.00000</ele>
        <time>2010-01-01T04:45:17Z</time>
      </trkpt>
      <trkpt lat="51.74184520" lon="39.47773930">
        <ele>134.00000</ele>
        <time>2010-01-01T04:45:58Z</time>
      </trkpt>
      <trkpt lat="51.74237670" lon="39.47988510">
        <ele>134.00000</ele>
        <time>2010-01-01T04:46:55Z</time>
      </trkpt>
      <trkpt lat="51.74297460" lon="39.48085060">
        <ele>134.00000</ele>
        <time>2010-01-01T04:47:29Z</time>
      </trkpt>
      <trkpt lat="51.74345290" lon="39.48162310">
        <ele>134.00000</ele>
        <time>2010-01-01T04:47:56Z</time>
      </trkpt>
      <trkpt lat="51.74548560" lon="39.48681590">
        <ele>143.00000</ele>
        <time>2010-01-01T04:50:29Z</time>
      </trkpt>
      <trkpt lat="51.74734560" lon="39.49119320">
        <ele>146.00000</ele>
        <time>2010-01-01T04:52:40Z</time>
      </trkpt>
      <trkpt lat="51.74859440" lon="39.49434750">
        <ele>145.00000</ele>
        <time>2010-01-01T04:54:13Z</time>
      </trkpt>
      <trkpt lat="51.74973680" lon="39.49720140">
        <ele>142.00000</ele>
        <time>2010-01-01T04:55:37Z</time>
      </trkpt>
      <trkpt lat="51.75069330" lon="39.49939010">
        <ele>142.00000</ele>
        <time>2010-01-01T04:56:44Z</time>
      </trkpt>
      <trkpt lat="51.75186230" lon="39.50254440">
        <ele>139.00000</ele>
        <time>2010-01-01T04:58:15Z</time>
      </trkpt>
      <trkpt lat="51.75246010" lon="39.50381040">
        <ele>139.00000</ele>
        <time>2010-01-01T04:58:54Z</time>
      </trkpt>
      <trkpt lat="51.75283200" lon="39.50486180">
        <ele>139.00000</ele>
        <time>2010-01-01T04:59:24Z</time>
      </trkpt>
      <trkpt lat="51.75424000" lon="39.50786590">
        <ele>137.00000</ele>
        <time>2010-01-01T05:00:58Z</time>
      </trkpt>
      <trkpt lat="51.75528940" lon="39.51001160">
        <ele>136.00000</ele>
        <time>2010-01-01T05:02:05Z</time>
      </trkpt>
      <trkpt lat="51.75685670" lon="39.51327320">
        <ele>138.00000</ele>
        <time>2010-01-01T05:03:48Z</time>
      </trkpt>
      <trkpt lat="51.75807870" lon="39.51576230">
        <ele>140.00000</ele>
        <time>2010-01-01T05:05:06Z</time>
      </trkpt>
      <trkpt lat="51.75977870" lon="39.51900240">
        <ele>141.00000</ele>
        <time>2010-01-01T05:06:52Z</time>
      </trkpt>
      <trkpt lat="51.76173110" lon="39.52310080">
        <ele>143.00000</ele>
        <time>2010-01-01T05:09:00Z</time>
      </trkpt>
      <trkpt lat="51.76321850" lon="39.52584740">
        <ele>144.00000</ele>
        <time>2010-01-01T05:10:30Z</time>
      </trkpt>
      <trkpt lat="51.76449340" lon="39.52827210">
        <ele>145.00000</ele>
        <time>2010-01-01T05:11:49Z</time>
      </trkpt>
      <trkpt lat="51.76607370" lon="39.53091140">
        <ele>145.00000</ele>
        <time>2010-01-01T05:13:20Z</time>
      </trkpt>
      <trkpt lat="51.76681730" lon="39.53211300">
        <ele>145.00000</ele>
        <time>2010-01-01T05:14:02Z</time>
      </trkpt>
      <trkpt lat="51.76677750" lon="39.53256360">
        <ele>145.00000</ele>
        <time>2010-01-01T05:14:13Z</time>
      </trkpt>
      <trkpt lat="51.76621980" lon="39.53318590">
        <ele>144.00000</ele>
        <time>2010-01-01T05:14:41Z</time>
      </trkpt>
      <trkpt lat="51.76378950" lon="39.53614710">
        <ele>149.00000</ele>
        <time>2010-01-01T05:16:42Z</time>
      </trkpt>
      <trkpt lat="51.76214280" lon="39.53794950">
        <ele>149.00000</ele>
        <time>2010-01-01T05:18:02Z</time>
      </trkpt>
      <trkpt lat="51.76163810" lon="39.53874340">
        <ele>149.00000</ele>
        <time>2010-01-01T05:18:30Z</time>
      </trkpt>
      <trkpt lat="51.75817160" lon="39.54666130">
        <ele>147.00000</ele>
        <time>2010-01-01T05:22:30Z</time>
      </trkpt>
      <trkpt lat="51.75645820" lon="39.55086700">
        <ele>146.00000</ele>
        <time>2010-01-01T05:24:35Z</time>
      </trkpt>
      <trkpt lat="51.75611290" lon="39.55213300">
        <ele>143.00000</ele>
        <time>2010-01-01T05:25:10Z</time>
      </trkpt>
      <trkpt lat="51.75584720" lon="39.55417150">
        <ele>143.00000</ele>
        <time>2010-01-01T05:26:01Z</time>
      </trkpt>
      <trkpt lat="51.75539560" lon="39.56065170">
        <ele>144.00000</ele>
        <time>2010-01-01T05:28:43Z</time>
      </trkpt>
      <trkpt lat="51.75481120" lon="39.56854820">
        <ele>138.00000</ele>
        <time>2010-01-01T05:32:00Z</time>
      </trkpt>
      <trkpt lat="51.75416030" lon="39.57620850">
        <ele>140.00000</ele>
        <time>2010-01-01T05:35:11Z</time>
      </trkpt>
      <trkpt lat="51.75369540" lon="39.57919120">
        <ele>141.00000</ele>
        <time>2010-01-01T05:36:28Z</time>
      </trkpt>
      <trkpt lat="51.75333680" lon="39.58215230">
        <ele>136.00000</ele>
        <time>2010-01-01T05:37:42Z</time>
      </trkpt>
      <trkpt lat="51.75345630" lon="39.58489890">
        <ele>132.00000</ele>
        <time>2010-01-01T05:38:51Z</time>
      </trkpt>
      <trkpt lat="51.75297810" lon="39.58786010">
        <ele>128.00000</ele>
        <time>2010-01-01T05:40:06Z</time>
      </trkpt>
      <trkpt lat="51.75923420" lon="39.58839650">
        <ele>126.00000</ele>
        <time>2010-01-01T05:44:17Z</time>
      </trkpt>
      <trkpt lat="51.76381610" lon="39.58861110">
        <ele>122.00000</ele>
        <time>2010-01-01T05:47:21Z</time>
      </trkpt>
      <trkpt lat="51.76610020" lon="39.58961960">
        <ele>119.00000</ele>
        <time>2010-01-01T05:48:56Z</time>
      </trkpt>
      <trkpt lat="51.76656500" lon="39.59026330">
        <ele>120.00000</ele>
        <time>2010-01-01T05:49:20Z</time>
      </trkpt>
      <trkpt lat="51.76656500" lon="39.59122890">
        <ele>118.00000</ele>
        <time>2010-01-01T05:49:44Z</time>
      </trkpt>
      <trkpt lat="51.76649860" lon="39.59852450">
        <ele>116.00000</ele>
        <time>2010-01-01T05:52:45Z</time>
      </trkpt>
      <trkpt lat="51.76651190" lon="39.60354560">
        <ele>114.00000</ele>
        <time>2010-01-01T05:54:49Z</time>
      </trkpt>
      <trkpt lat="51.76677750" lon="39.60710760">
        <ele>114.00000</ele>
        <time>2010-01-01T05:56:18Z</time>
      </trkpt>
      <trkpt lat="51.76744150" lon="39.60989710">
        <ele>112.00000</ele>
        <time>2010-01-01T05:57:32Z</time>
      </trkpt>
      <trkpt lat="51.76795930" lon="39.61157080">
        <ele>113.00000</ele>
        <time>2010-01-01T05:58:18Z</time>
      </trkpt>
      <trkpt lat="51.76830460" lon="39.61208580">
        <ele>113.00000</ele>
        <time>2010-01-01T05:58:37Z</time>
      </trkpt>
      <trkpt lat="51.77433280" lon="39.61496110">
        <ele>120.00000</ele>
        <time>2010-01-01T06:02:49Z</time>
      </trkpt>
      <trkpt lat="51.78247100" lon="39.61899510">
        <ele>117.00000</ele>
        <time>2010-01-01T06:08:30Z</time>
      </trkpt>
      <trkpt lat="51.79149690" lon="39.62363000">
        <ele>121.00000</ele>
        <time>2010-01-01T06:14:49Z</time>
      </trkpt>
      <trkpt lat="51.79719030" lon="39.62702030">
        <ele>124.00000</ele>
        <time>2010-01-01T06:18:51Z</time>
      </trkpt>
      <trkpt lat="51.80361270" lon="39.63086120">
        <ele>123.00000</ele>
        <time>2010-01-01T06:23:26Z</time>
      </trkpt>
      <trkpt lat="51.80566930" lon="39.63234180">
        <ele>121.00000</ele>
        <time>2010-01-01T06:24:56Z</time>
      </trkpt>
      <trkpt lat="51.80882700" lon="39.63579650">
        <ele>121.00000</ele>
        <time>2010-01-01T06:27:28Z</time>
      </trkpt>
      <trkpt lat="51.80990160" lon="39.63661190">
        <ele>121.00000</ele>
        <time>2010-01-01T06:28:16Z</time>
      </trkpt>
      <trkpt lat="51.81488960" lon="39.63800660">
        <ele>129.00000</ele>
        <time>2010-01-01T06:31:38Z</time>
      </trkpt>
      <trkpt lat="51.81805990" lon="39.63901510">
        <ele>128.00000</ele>
        <time>2010-01-01T06:33:48Z</time>
      </trkpt>
      <trkpt lat="51.82361730" lon="39.64249130">
        <ele>126.00000</ele>
        <time>2010-01-01T06:37:46Z</time>
      </trkpt>
      <trkpt lat="51.83015530" lon="39.64673990">
        <ele>127.00000</ele>
        <time>2010-01-01T06:42:28Z</time>
      </trkpt>
      <trkpt lat="51.83511450" lon="39.65008730">
        <ele>127.00000</ele>
        <time>2010-01-01T06:46:03Z</time>
      </trkpt>
      <trkpt lat="51.83967550" lon="39.65309140">
        <ele>127.00000</ele>
        <time>2010-01-01T06:49:21Z</time>
      </trkpt>
      <trkpt lat="51.84670160" lon="39.65776920">
        <ele>127.00000</ele>
        <time>2010-01-01T06:54:25Z</time>
      </trkpt>
      <trkpt lat="51.85095650" lon="39.66049430">
        <ele>130.00000</ele>
        <time>2010-01-01T06:57:28Z</time>
      </trkpt>
      <trkpt lat="51.85220250" lon="39.66165300">
        <ele>137.00000</ele>
        <time>2010-01-01T06:58:25Z</time>
      </trkpt>
      <trkpt lat="51.85413750" lon="39.66463560">
        <ele>132.00000</ele>
        <time>2010-01-01T07:00:12Z</time>
      </trkpt>
      <trkpt lat="51.85560870" lon="39.66695300">
        <ele>134.00000</ele>
        <time>2010-01-01T07:01:34Z</time>
      </trkpt>
      <trkpt lat="51.85688100" lon="39.66897010">
        <ele>132.00000</ele>
        <time>2010-01-01T07:02:46Z</time>
      </trkpt>
      <trkpt lat="51.85849780" lon="39.67100850">
        <ele>133.00000</ele>
        <time>2010-01-01T07:04:08Z</time>
      </trkpt>
      <trkpt lat="51.85926640" lon="39.67285390">
        <ele>136.00000</ele>
        <time>2010-01-01T07:05:03Z</time>
      </trkpt>
      <trkpt lat="51.85967720" lon="39.67442030">
        <ele>138.00000</ele>
        <time>2010-01-01T07:05:45Z</time>
      </trkpt>
      <trkpt lat="51.86041930" lon="39.67879770">
        <ele>143.00000</ele>
        <time>2010-01-01T07:07:37Z</time>
      </trkpt>
      <trkpt lat="51.86108190" lon="39.67963450">
        <ele>145.00000</ele>
        <time>2010-01-01T07:08:11Z</time>
      </trkpt>
      <trkpt lat="51.86189030" lon="39.68246690">
        <ele>148.00000</ele>
        <time>2010-01-01T07:09:28Z</time>
      </trkpt>
      <trkpt lat="51.86401040" lon="39.69017020">
        <ele>155.00000</ele>
        <time>2010-01-01T07:12:56Z</time>
      </trkpt>
      <trkpt lat="51.86687250" lon="39.70104930">
        <ele>158.00000</ele>
        <time>2010-01-01T07:17:49Z</time>
      </trkpt>
      <trkpt lat="51.86768070" lon="39.70325940">
        <ele>162.00000</ele>
        <time>2010-01-01T07:18:52Z</time>
      </trkpt>
      <trkpt lat="51.86953570" lon="39.70780840">
        <ele>161.00000</ele>
        <time>2010-01-01T07:21:07Z</time>
      </trkpt>
      <trkpt lat="51.87241060" lon="39.71471780">
        <ele>167.00000</ele>
        <time>2010-01-01T07:24:33Z</time>
      </trkpt>
      <trkpt lat="51.87422560" lon="39.71845140">
        <ele>166.00000</ele>
        <time>2010-01-01T07:26:30Z</time>
      </trkpt>
      <trkpt lat="51.87680880" lon="39.72246400">
        <ele>160.00000</ele>
        <time>2010-01-01T07:28:54Z</time>
      </trkpt>
      <trkpt lat="51.88062380" lon="39.72857950">
        <ele>159.00000</ele>
        <time>2010-01-01T07:32:28Z</time>
      </trkpt>
      <trkpt lat="51.88503450" lon="39.73544590">
        <ele>158.00000</ele>
        <time>2010-01-01T07:36:33Z</time>
      </trkpt>
      <trkpt lat="51.88834550" lon="39.74053140">
        <ele>153.00000</ele>
        <time>2010-01-01T07:39:36Z</time>
      </trkpt>
      <trkpt lat="51.88925930" lon="39.74209780">
        <ele>154.00000</ele>
        <time>2010-01-01T07:40:29Z</time>
      </trkpt>
      <trkpt lat="51.89037170" lon="39.74357840">
        <ele>156.00000</ele>
        <time>2010-01-01T07:41:27Z</time>
      </trkpt>
      <trkpt lat="51.89478140" lon="39.74756950">
        <ele>154.00000</ele>
        <time>2010-01-01T07:44:49Z</time>
      </trkpt>
      <trkpt lat="51.89658230" lon="39.74920030">
        <ele>154.00000</ele>
        <time>2010-01-01T07:46:12Z</time>
      </trkpt>
      <trkpt lat="51.90263310" lon="39.75510120">
        <ele>152.00000</ele>
        <time>2010-01-01T07:50:54Z</time>
      </trkpt>
      <trkpt lat="51.90075300" lon="39.75720400">
        <ele>155.00000</ele>
        <time>2010-01-01T07:52:26Z</time>
      </trkpt>
      <trkpt lat="51.89560240" lon="39.76507900">
        <ele>162.00000</ele>
        <time>2010-01-01T07:57:09Z</time>
      </trkpt>
      <trkpt lat="51.89275540" lon="39.75988620">
        <ele>158.00000</ele>
        <time>2010-01-01T08:00:01Z</time>
      </trkpt>
      <trkpt lat="51.88800120" lon="39.76610890">
        <ele>161.00000</ele>
        <time>2010-01-01T08:04:05Z</time>
      </trkpt>
      <trkpt lat="51.88099470" lon="39.77535720">
        <ele>166.00000</ele>
        <time>2010-01-01T08:10:07Z</time>
      </trkpt>
      <trkpt lat="51.86984040" lon="39.78981970">
        <ele>166.00000</ele>
        <time>2010-01-01T08:19:39Z</time>
      </trkpt>
      <trkpt lat="51.86019410" lon="39.80243680">
        <ele>167.00000</ele>
        <time>2010-01-01T08:27:55Z</time>
      </trkpt>
      <trkpt lat="51.85772910" lon="39.80578420">
        <ele>167.00000</ele>
        <time>2010-01-01T08:30:04Z</time>
      </trkpt>
      <trkpt lat="51.85391220" lon="39.83951560">
        <ele>161.00000</ele>
        <time>2010-01-01T08:44:12Z</time>
      </trkpt>
      <trkpt lat="51.85250730" lon="39.85127440">
        <ele>162.00000</ele>
        <time>2010-01-01T08:49:08Z</time>
      </trkpt>
      <trkpt lat="51.85041310" lon="39.86951350">
        <ele>166.00000</ele>
        <time>2010-01-01T08:56:47Z</time>
      </trkpt>
      <trkpt lat="51.85131440" lon="39.87002840">
        <ele>166.00000</ele>
        <time>2010-01-01T08:57:25Z</time>
      </trkpt>
      <trkpt lat="51.85248080" lon="39.87123010">
        <ele>165.00000</ele>
        <time>2010-01-01T08:58:21Z</time>
      </trkpt>
      <trkpt lat="51.85319650" lon="39.87350460">
        <ele>167.00000</ele>
        <time>2010-01-01T08:59:24Z</time>
      </trkpt>
      <trkpt lat="51.85343510" lon="39.87612240">
        <ele>166.00000</ele>
        <time>2010-01-01T09:00:29Z</time>
      </trkpt>
      <trkpt lat="51.85319650" lon="39.87779610">
        <ele>167.00000</ele>
        <time>2010-01-01T09:01:12Z</time>
      </trkpt>
      <trkpt lat="51.85279890" lon="39.88131520">
        <ele>166.00000</ele>
        <time>2010-01-01T09:02:40Z</time>
      </trkpt>
      <trkpt lat="51.85165900" lon="39.88865370">
        <ele>166.00000</ele>
        <time>2010-01-01T09:05:47Z</time>
      </trkpt>
      <trkpt lat="51.85126140" lon="39.89303110">
        <ele>167.00000</ele>
        <time>2010-01-01T09:07:37Z</time>
      </trkpt>
      <trkpt lat="51.85160600" lon="39.89534850">
        <ele>166.00000</ele>
        <time>2010-01-01T09:08:36Z</time>
      </trkpt>
      <trkpt lat="51.85168550" lon="39.89727970">
        <ele>166.00000</ele>
        <time>2010-01-01T09:09:23Z</time>
      </trkpt>
      <trkpt lat="51.85104930" lon="39.90006920">
        <ele>165.00000</ele>
        <time>2010-01-01T09:10:37Z</time>
      </trkpt>
      <trkpt lat="51.84967080" lon="39.90148540">
        <ele>163.00000</ele>
        <time>2010-01-01T09:11:42Z</time>
      </trkpt>
      <trkpt lat="51.84786810" lon="39.90345950">
        <ele>162.00000</ele>
        <time>2010-01-01T09:13:09Z</time>
      </trkpt>
      <trkpt lat="51.84577370" lon="39.91637700">
        <ele>163.00000</ele>
        <time>2010-01-01T09:18:40Z</time>
      </trkpt>
      <trkpt lat="51.84450110" lon="39.92564670">
        <ele>160.00000</ele>
        <time>2010-01-01T09:22:34Z</time>
      </trkpt>
      <trkpt lat="51.84399730" lon="39.93010990">
        <ele>157.00000</ele>
        <time>2010-01-01T09:24:27Z</time>
      </trkpt>
      <trkpt lat="51.84375870" lon="39.93259900">
        <ele>155.00000</ele>
        <time>2010-01-01T09:25:29Z</time>
      </trkpt>
      <trkpt lat="51.84375870" lon="39.93568890">
        <ele>152.00000</ele>
        <time>2010-01-01T09:26:45Z</time>
      </trkpt>
      <trkpt lat="51.84259210" lon="39.93787760">
        <ele>152.00000</ele>
        <time>2010-01-01T09:27:57Z</time>
      </trkpt>
      <trkpt lat="51.84084220" lon="39.93968000">
        <ele>148.00000</ele>
        <time>2010-01-01T09:29:20Z</time>
      </trkpt>
      <trkpt lat="51.84015280" lon="39.94075290">
        <ele>146.00000</ele>
        <time>2010-01-01T09:29:58Z</time>
      </trkpt>
      <trkpt lat="51.83941030" lon="39.94216910">
        <ele>144.00000</ele>
        <time>2010-01-01T09:30:44Z</time>
      </trkpt>
      <trkpt lat="51.83837620" lon="39.94362830">
        <ele>141.00000</ele>
        <time>2010-01-01T09:31:39Z</time>
      </trkpt>
      <trkpt lat="51.83705030" lon="39.94530200">
        <ele>136.00000</ele>
        <time>2010-01-01T09:32:46Z</time>
      </trkpt>
      <trkpt lat="51.83561840" lon="39.94869230">
        <ele>142.00000</ele>
        <time>2010-01-01T09:34:28Z</time>
      </trkpt>
      <trkpt lat="51.83450460" lon="39.95118140">
        <ele>151.00000</ele>
        <time>2010-01-01T09:35:44Z</time>
      </trkpt>
      <trkpt lat="51.83370900" lon="39.95246880">
        <ele>154.00000</ele>
        <time>2010-01-01T09:36:29Z</time>
      </trkpt>
      <trkpt lat="51.83320510" lon="39.95392790">
        <ele>155.00000</ele>
        <time>2010-01-01T09:37:10Z</time>
      </trkpt>
      <trkpt lat="51.83296650" lon="39.95564460">
        <ele>154.00000</ele>
        <time>2010-01-01T09:37:54Z</time>
      </trkpt>
      <trkpt lat="51.83283390" lon="39.95706080">
        <ele>155.00000</ele>
        <time>2010-01-01T09:38:29Z</time>
      </trkpt>
      <trkpt lat="51.83201170" lon="39.95993610">
        <ele>156.00000</ele>
        <time>2010-01-01T09:39:48Z</time>
      </trkpt>
      <trkpt lat="51.82933310" lon="39.96671670">
        <ele>164.00000</ele>
        <time>2010-01-01T09:43:07Z</time>
      </trkpt>
      <trkpt lat="51.82591160" lon="39.97431270">
        <ele>162.00000</ele>
        <time>2010-01-01T09:46:59Z</time>
      </trkpt>
      <trkpt lat="51.82219810" lon="39.98238080">
        <ele>164.00000</ele>
        <time>2010-01-01T09:51:08Z</time>
      </trkpt>
      <trkpt lat="51.82012900" lon="39.98929020">
        <ele>162.00000</ele>
        <time>2010-01-01T09:54:18Z</time>
      </trkpt>
      <trkpt lat="51.81686610" lon="40.00203600">
        <ele>163.00000</ele>
        <time>2010-01-01T10:00:00Z</time>
      </trkpt>
      <trkpt lat="51.81129460" lon="40.02319330">
        <ele>164.00000</ele>
        <time>2010-01-01T10:09:29Z</time>
      </trkpt>
      <trkpt lat="51.80811060" lon="40.03508090">
        <ele>170.00000</ele>
        <time>2010-01-01T10:14:49Z</time>
      </trkpt>
      <trkpt lat="51.80537740" lon="40.04576680">
        <ele>169.00000</ele>
        <time>2010-01-01T10:19:35Z</time>
      </trkpt>
      <trkpt lat="51.80312180" lon="40.05409240">
        <ele>171.00000</ele>
        <time>2010-01-01T10:23:20Z</time>
      </trkpt>
      <trkpt lat="51.80121110" lon="40.06130210">
        <ele>168.00000</ele>
        <time>2010-01-01T10:26:35Z</time>
      </trkpt>
      <trkpt lat="51.79746900" lon="40.07786750">
        <ele>171.00000</ele>
        <time>2010-01-01T10:33:51Z</time>
      </trkpt>
      <trkpt lat="51.79526610" lon="40.08795260">
        <ele>167.00000</ele>
        <time>2010-01-01T10:38:16Z</time>
      </trkpt>
      <trkpt lat="51.79367350" lon="40.09589190">
        <ele>164.00000</ele>
        <time>2010-01-01T10:41:43Z</time>
      </trkpt>
      <trkpt lat="51.79229330" lon="40.10391710">
        <ele>167.00000</ele>
        <time>2010-01-01T10:45:09Z</time>
      </trkpt>
      <trkpt lat="51.79149690" lon="40.10559080">
        <ele>168.00000</ele>
        <time>2010-01-01T10:46:01Z</time>
      </trkpt>
      <trkpt lat="51.78963880" lon="40.10769360">
        <ele>166.00000</ele>
        <time>2010-01-01T10:47:32Z</time>
      </trkpt>
      <trkpt lat="51.77734660" lon="40.12005320">
        <ele>170.00000</ele>
        <time>2010-01-01T10:57:11Z</time>
      </trkpt>
      <trkpt lat="51.76465270" lon="40.12627600">
        <ele>171.00000</ele>
        <time>2010-01-01T11:06:02Z</time>
      </trkpt>
      <trkpt lat="51.76377630" lon="40.12661930">
        <ele>173.00000</ele>
        <time>2010-01-01T11:06:39Z</time>
      </trkpt>
      <trkpt lat="51.75904820" lon="40.12829300">
        <ele>171.00000</ele>
        <time>2010-01-01T11:09:52Z</time>
      </trkpt>
      <trkpt lat="51.74783710" lon="40.13387200">
        <ele>172.00000</ele>
        <time>2010-01-01T11:17:42Z</time>
      </trkpt>
      <trkpt lat="51.74300120" lon="40.13640400">
        <ele>175.00000</ele>
        <time>2010-01-01T11:21:05Z</time>
      </trkpt>
      <trkpt lat="51.73877590" lon="40.13777730">
        <ele>175.00000</ele>
        <time>2010-01-01T11:23:58Z</time>
      </trkpt>
      <trkpt lat="51.73680930" lon="40.13756270">
        <ele>174.00000</ele>
        <time>2010-01-01T11:25:17Z</time>
      </trkpt>
      <trkpt lat="51.73324790" lon="40.13794890">
        <ele>175.00000</ele>
        <time>2010-01-01T11:27:40Z</time>
      </trkpt>
      <trkpt lat="51.72538000" lon="40.13970850">
        <ele>174.00000</ele>
        <time>2010-01-01T11:32:58Z</time>
      </trkpt>
      <trkpt lat="51.71703210" lon="40.14155380">
        <ele>172.00000</ele>
        <time>2010-01-01T11:38:35Z</time>
      </trkpt>
      <trkpt lat="51.71195350" lon="40.14254090">
        <ele>173.00000</ele>
        <time>2010-01-01T11:42:00Z</time>
      </trkpt>
      <trkpt lat="51.70841680" lon="40.14202590">
        <ele>173.00000</ele>
        <time>2010-01-01T11:44:22Z</time>
      </trkpt>
      <trkpt lat="51.70453400" lon="40.14073840">
        <ele>172.00000</ele>
        <time>2010-01-01T11:47:01Z</time>
      </trkpt>
      <trkpt lat="51.68886660" lon="40.13636110">
        <ele>171.00000</ele>
        <time>2010-01-01T11:57:37Z</time>
      </trkpt>
      <trkpt lat="51.68471610" lon="40.13528820">
        <ele>169.00000</ele>
        <time>2010-01-01T12:00:25Z</time>
      </trkpt>
      <trkpt lat="51.67878240" lon="40.13322830">
        <ele>169.00000</ele>
        <time>2010-01-01T12:04:28Z</time>
      </trkpt>
      <trkpt lat="51.67332690" lon="40.13297080">
        <ele>171.00000</ele>
        <time>2010-01-01T12:08:07Z</time>
      </trkpt>
      <trkpt lat="51.66510250" lon="40.13228410">
        <ele>174.00000</ele>
        <time>2010-01-01T12:13:36Z</time>
      </trkpt>
      <trkpt lat="51.66313270" lon="40.13219830">
        <ele>173.00000</ele>
        <time>2010-01-01T12:14:55Z</time>
      </trkpt>
      <trkpt lat="51.65807470" lon="40.13185500">
        <ele>173.00000</ele>
        <time>2010-01-01T12:18:18Z</time>
      </trkpt>
      <trkpt lat="51.65434740" lon="40.13138290">
        <ele>172.00000</ele>
        <time>2010-01-01T12:20:48Z</time>
      </trkpt>
      <trkpt lat="51.65189780" lon="40.13507360">
        <ele>171.00000</ele>
        <time>2010-01-01T12:23:02Z</time>
      </trkpt>
      <trkpt lat="51.64915520" lon="40.13142580">
        <ele>174.00000</ele>
        <time>2010-01-01T12:25:24Z</time>
      </trkpt>
      <trkpt lat="51.64635920" lon="40.13151160">
        <ele>175.00000</ele>
        <time>2010-01-01T12:27:16Z</time>
      </trkpt>
      <trkpt lat="51.64406900" lon="40.13087860">
        <ele>173.00000</ele>
        <time>2010-01-01T12:28:49Z</time>
      </trkpt>
      <trkpt lat="51.64416220" lon="40.12891530">
        <ele>174.00000</ele>
        <time>2010-01-01T12:29:38Z</time>
      </trkpt>
      <trkpt lat="51.64739770" lon="40.12937660">
        <ele>174.00000</ele>
        <time>2010-01-01T12:31:48Z</time>
      </trkpt>
      <trkpt lat="51.64771730" lon="40.12001030">
        <ele>175.00000</ele>
        <time>2010-01-01T12:35:41Z</time>
      </trkpt>
      <trkpt lat="51.64793030" lon="40.11765000">
        <ele>175.00000</ele>
        <time>2010-01-01T12:36:40Z</time>
      </trkpt>
      <trkpt lat="51.65016710" lon="40.10262960">
        <ele>171.00000</ele>
        <time>2010-01-01T12:43:04Z</time>
      </trkpt>
      <trkpt lat="51.65168480" lon="40.09190080">
        <ele>171.00000</ele>
        <time>2010-01-01T12:47:37Z</time>
      </trkpt>
      <trkpt lat="51.65336220" lon="40.08035650">
        <ele>173.00000</ele>
        <time>2010-01-01T12:52:32Z</time>
      </trkpt>
      <trkpt lat="51.65586490" lon="40.06284710">
        <ele>168.00000</ele>
        <time>2010-01-01T12:59:58Z</time>
      </trkpt>
      <trkpt lat="51.65562530" lon="40.06044380">
        <ele>167.00000</ele>
        <time>2010-01-01T13:00:58Z</time>
      </trkpt>
      <trkpt lat="51.65509280" lon="40.05855560">
        <ele>165.00000</ele>
        <time>2010-01-01T13:01:50Z</time>
      </trkpt>
      <trkpt lat="51.65464020" lon="40.05666730">
        <ele>162.00000</ele>
        <time>2010-01-01T13:02:40Z</time>
      </trkpt>
      <trkpt lat="51.65426750" lon="40.05452150">
        <ele>155.00000</ele>
        <time>2010-01-01T13:03:36Z</time>
      </trkpt>
      <trkpt lat="51.65437400" lon="40.05203240">
        <ele>162.00000</ele>
        <time>2010-01-01T13:04:38Z</time>
      </trkpt>
      <trkpt lat="51.65493310" lon="40.04937170">
        <ele>166.00000</ele>
        <time>2010-01-01T13:05:47Z</time>
      </trkpt>
      <trkpt lat="51.65543900" lon="40.04649630">
        <ele>168.00000</ele>
        <time>2010-01-01T13:07:02Z</time>
      </trkpt>
      <trkpt lat="51.65530580" lon="40.04559510">
        <ele>169.00000</ele>
        <time>2010-01-01T13:07:25Z</time>
      </trkpt>
      <trkpt lat="51.65394800" lon="40.03877160">
        <ele>171.00000</ele>
        <time>2010-01-01T13:10:23Z</time>
      </trkpt>
      <trkpt lat="51.65216410" lon="40.03010270">
        <ele>171.00000</ele>
        <time>2010-01-01T13:14:09Z</time>
      </trkpt>
      <trkpt lat="51.65125880" lon="40.02705570">
        <ele>168.00000</ele>
        <time>2010-01-01T13:15:33Z</time>
      </trkpt>
      <trkpt lat="51.65035350" lon="40.02400870">
        <ele>168.00000</ele>
        <time>2010-01-01T13:16:57Z</time>
      </trkpt>
      <trkpt lat="51.65038010" lon="40.02190580">
        <ele>168.00000</ele>
        <time>2010-01-01T13:17:49Z</time>
      </trkpt>
      <trkpt lat="51.65096590" lon="40.01976010">
        <ele>168.00000</ele>
        <time>2010-01-01T13:18:48Z</time>
      </trkpt>
      <trkpt lat="51.65112560" lon="40.01894470">
        <ele>168.00000</ele>
        <time>2010-01-01T13:19:09Z</time>
      </trkpt>
      <trkpt lat="51.65080610" lon="40.01611230">
        <ele>165.00000</ele>
        <time>2010-01-01T13:20:20Z</time>
      </trkpt>
      <trkpt lat="51.65083270" lon="40.01465320">
        <ele>161.00000</ele>
        <time>2010-01-01T13:20:57Z</time>
      </trkpt>
      <trkpt lat="51.65128540" lon="40.01306530">
        <ele>166.00000</ele>
        <time>2010-01-01T13:21:40Z</time>
      </trkpt>
      <trkpt lat="51.65298950" lon="40.00898830">
        <ele>171.00000</ele>
        <time>2010-01-01T13:23:42Z</time>
      </trkpt>
      <trkpt lat="51.65450710" lon="40.00572680">
        <ele>172.00000</ele>
        <time>2010-01-01T13:25:23Z</time>
      </trkpt>
      <trkpt lat="51.65487980" lon="40.00439640">
        <ele>171.00000</ele>
        <time>2010-01-01T13:26:00Z</time>
      </trkpt>
      <trkpt lat="51.65674350" lon="39.99843120">
        <ele>167.00000</ele>
        <time>2010-01-01T13:28:45Z</time>
      </trkpt>
      <trkpt lat="51.66087000" lon="39.98585700">
        <ele>170.00000</ele>
        <time>2010-01-01T13:34:39Z</time>
      </trkpt>
      <trkpt lat="51.66403780" lon="39.97607230">
        <ele>169.00000</ele>
        <time>2010-01-01T13:39:13Z</time>
      </trkpt>
      <trkpt lat="51.66646000" lon="39.96877670">
        <ele>168.00000</ele>
        <time>2010-01-01T13:42:38Z</time>
      </trkpt>
      <trkpt lat="51.66784410" lon="39.96435640">
        <ele>163.00000</ele>
        <time>2010-01-01T13:44:41Z</time>
      </trkpt>
      <trkpt lat="51.66861600" lon="39.96143810">
        <ele>161.00000</ele>
        <time>2010-01-01T13:46:00Z</time>
      </trkpt>
      <trkpt lat="51.66938790" lon="39.95920650">
        <ele>162.00000</ele>
        <time>2010-01-01T13:47:03Z</time>
      </trkpt>
      <trkpt lat="51.67247530" lon="39.95212550">
        <ele>157.00000</ele>
        <time>2010-01-01T13:50:38Z</time>
      </trkpt>
      <trkpt lat="51.67311400" lon="39.94852060">
        <ele>156.00000</ele>
        <time>2010-01-01T13:52:11Z</time>
      </trkpt>
      <trkpt lat="51.67367290" lon="39.94405740">
        <ele>157.00000</ele>
        <time>2010-01-01T13:54:04Z</time>
      </trkpt>
      <trkpt lat="51.67420510" lon="39.94221210">
        <ele>155.00000</ele>
        <time>2010-01-01T13:54:55Z</time>
      </trkpt>
      <trkpt lat="51.67556240" lon="39.94178290">
        <ele>153.00000</ele>
        <time>2010-01-01T13:55:50Z</time>
      </trkpt>
      <trkpt lat="51.67761150" lon="39.94152540">
        <ele>154.00000</ele>
        <time>2010-01-01T13:57:13Z</time>
      </trkpt>
      <trkpt lat="51.68008630" lon="39.94122500">
        <ele>153.00000</ele>
        <time>2010-01-01T13:58:52Z</time>
      </trkpt>
      <trkpt lat="51.68139010" lon="39.94071000">
        <ele>153.00000</ele>
        <time>2010-01-01T13:59:46Z</time>
      </trkpt>
      <trkpt lat="51.68218840" lon="39.93980880">
        <ele>151.00000</ele>
        <time>2010-01-01T14:00:25Z</time>
      </trkpt>
      <trkpt lat="51.68439690" lon="39.93624680">
        <ele>145.00000</ele>
        <time>2010-01-01T14:02:30Z</time>
      </trkpt>
      <trkpt lat="51.68570060" lon="39.93422980">
        <ele>138.00000</ele>
        <time>2010-01-01T14:03:42Z</time>
      </trkpt>
      <trkpt lat="51.68798870" lon="39.93208400">
        <ele>130.00000</ele>
        <time>2010-01-01T14:05:28Z</time>
      </trkpt>
      <trkpt lat="51.68926570" lon="39.93075370">
        <ele>129.00000</ele>
        <time>2010-01-01T14:06:29Z</time>
      </trkpt>
      <trkpt lat="51.68224160" lon="39.90371700">
        <ele>128.00000</ele>
        <time>2010-01-01T14:18:36Z</time>
      </trkpt>
      <trkpt lat="51.67979360" lon="39.89341730">
        <ele>132.00000</ele>
        <time>2010-01-01T14:23:10Z</time>
      </trkpt>
      <trkpt lat="51.67806390" lon="39.87882610">
        <ele>134.00000</ele>
        <time>2010-01-01T14:29:19Z</time>
      </trkpt>
      <trkpt lat="51.67819690" lon="39.87616530">
        <ele>134.00000</ele>
        <time>2010-01-01T14:30:25Z</time>
      </trkpt>
      <trkpt lat="51.67777120" lon="39.85844130">
        <ele>130.00000</ele>
        <time>2010-01-01T14:37:45Z</time>
      </trkpt>
      <trkpt lat="51.67723890" lon="39.84513750">
        <ele>142.00000</ele>
        <time>2010-01-01T14:43:16Z</time>
      </trkpt>
      <trkpt lat="51.67641400" lon="39.84123220">
        <ele>144.00000</ele>
        <time>2010-01-01T14:44:59Z</time>
      </trkpt>
      <trkpt lat="51.67532290" lon="39.83582490">
        <ele>142.00000</ele>
        <time>2010-01-01T14:47:20Z</time>
      </trkpt>
      <trkpt lat="51.67439140" lon="39.82698440">
        <ele>130.00000</ele>
        <time>2010-01-01T14:51:02Z</time>
      </trkpt>
      <trkpt lat="51.67455110" lon="39.82157700">
        <ele>121.00000</ele>
        <time>2010-01-01T14:53:17Z</time>
      </trkpt>
      <trkpt lat="51.67558900" lon="39.81453890">
        <ele>120.00000</ele>
        <time>2010-01-01T14:56:16Z</time>
      </trkpt>
      <trkpt lat="51.67729220" lon="39.80436800">
        <ele>141.00000</ele>
        <time>2010-01-01T15:00:38Z</time>
      </trkpt>
      <trkpt lat="51.67809050" lon="39.79904650">
        <ele>144.00000</ele>
        <time>2010-01-01T15:02:54Z</time>
      </trkpt>
      <trkpt lat="51.67862270" lon="39.79213710">
        <ele>147.00000</ele>
        <time>2010-01-01T15:05:47Z</time>
      </trkpt>
      <trkpt lat="51.67851630" lon="39.78814600">
        <ele>151.00000</ele>
        <time>2010-01-01T15:07:26Z</time>
      </trkpt>
      <trkpt lat="51.67790420" lon="39.78188030">
        <ele>152.00000</ele>
        <time>2010-01-01T15:10:03Z</time>
      </trkpt>
      <trkpt lat="51.67681320" lon="39.77359770">
        <ele>149.00000</ele>
        <time>2010-01-01T15:13:33Z</time>
      </trkpt>
      <trkpt lat="51.67569550" lon="39.76458540">
        <ele>149.00000</ele>
        <time>2010-01-01T15:17:22Z</time>
      </trkpt>
      <trkpt lat="51.67542930" lon="39.76128100">
        <ele>147.00000</ele>
        <time>2010-01-01T15:18:44Z</time>
      </trkpt>
      <trkpt lat="51.67572210" lon="39.73969450">
        <ele>115.00000</ele>
        <time>2010-01-01T15:27:40Z</time>
      </trkpt>
      <trkpt lat="51.67612130" lon="39.71759310">
        <ele>135.00000</ele>
        <time>2010-01-01T15:36:49Z</time>
      </trkpt>
      <trkpt lat="51.67649380" lon="39.70484730">
        <ele>148.00000</ele>
        <time>2010-01-01T15:42:06Z</time>
      </trkpt>
      <trkpt lat="51.67710590" lon="39.69150060">
        <ele>153.00000</ele>
        <time>2010-01-01T15:47:38Z</time>
      </trkpt>
      <trkpt lat="51.67835660" lon="39.67562190">
        <ele>149.00000</ele>
        <time>2010-01-01T15:54:15Z</time>
      </trkpt>
      <trkpt lat="51.67958070" lon="39.66073030">
        <ele>142.00000</ele>
        <time>2010-01-01T16:00:28Z</time>
      </trkpt>
      <trkpt lat="51.67976700" lon="39.65570920">
        <ele>140.00000</ele>
        <time>2010-01-01T16:02:33Z</time>
      </trkpt>
      <trkpt lat="51.67958070" lon="39.63807100">
        <ele>133.00000</ele>
        <time>2010-01-01T16:09:51Z</time>
      </trkpt>
      <trkpt lat="51.67958070" lon="39.62888710">
        <ele>132.00000</ele>
        <time>2010-01-01T16:13:39Z</time>
      </trkpt>
      <trkpt lat="51.68029920" lon="39.61137770">
        <ele>113.00000</ele>
        <time>2010-01-01T16:20:54Z</time>
      </trkpt>
      <trkpt lat="51.68099100" lon="39.59446900">
        <ele>108.00000</ele>
        <time>2010-01-01T16:27:55Z</time>
      </trkpt>
      <trkpt lat="51.68160300" lon="39.57738870">
        <ele>113.00000</ele>
        <time>2010-01-01T16:35:00Z</time>
      </trkpt>
      <trkpt lat="51.68192230" lon="39.57386970">
        <ele>111.00000</ele>
        <time>2010-01-01T16:36:28Z</time>
      </trkpt>
      <trkpt lat="51.67871590" lon="39.57410570">
        <ele>117.00000</ele>
        <time>2010-01-01T16:38:36Z</time>
      </trkpt>
      <trkpt lat="51.67739860" lon="39.57386970">
        <ele>118.00000</ele>
        <time>2010-01-01T16:39:29Z</time>
      </trkpt>
      <trkpt lat="51.67662690" lon="39.57386970">
        <ele>115.00000</ele>
        <time>2010-01-01T16:40:00Z</time>
      </trkpt>
      <trkpt lat="51.67534950" lon="39.57391260">
        <ele>113.00000</ele>
        <time>2010-01-01T16:40:52Z</time>
      </trkpt>
      <trkpt lat="51.67460430" lon="39.57346200">
        <ele>114.00000</ele>
        <time>2010-01-01T16:41:23Z</time>
      </trkpt>
      <trkpt lat="51.67311400" lon="39.57208870">
        <ele>115.00000</ele>
        <time>2010-01-01T16:42:32Z</time>
      </trkpt>
      <trkpt lat="51.67115780" lon="39.57101580">
        <ele>122.00000</ele>
        <time>2010-01-01T16:43:55Z</time>
      </trkpt>
      <trkpt lat="51.67075860" lon="39.57071540">
        <ele>123.00000</ele>
        <time>2010-01-01T16:44:12Z</time>
      </trkpt>
      <trkpt lat="51.66844300" lon="39.57221740">
        <ele>127.00000</ele>
        <time>2010-01-01T16:45:52Z</time>
      </trkpt>
      <trkpt lat="51.66544860" lon="39.57434170">
        <ele>117.00000</ele>
        <time>2010-01-01T16:48:03Z</time>
      </trkpt>
      <trkpt lat="51.66443710" lon="39.57485670">
        <ele>115.00000</ele>
        <time>2010-01-01T16:48:46Z</time>
      </trkpt>
      <trkpt lat="51.66387810" lon="39.57464210">
        <ele>114.00000</ele>
        <time>2010-01-01T16:49:09Z</time>
      </trkpt>
      <trkpt lat="51.66309280" lon="39.57359070">
        <ele>114.00000</ele>
        <time>2010-01-01T16:49:50Z</time>
      </trkpt>
      <trkpt lat="51.66173520" lon="39.57174530">
        <ele>119.00000</ele>
        <time>2010-01-01T16:51:01Z</time>
      </trkpt>
      <trkpt lat="51.66134920" lon="39.57138060">
        <ele>120.00000</ele>
        <time>2010-01-01T16:51:19Z</time>
      </trkpt>
      <trkpt lat="51.66052390" lon="39.57127330">
        <ele>119.00000</ele>
        <time>2010-01-01T16:51:52Z</time>
      </trkpt>
      <trkpt lat="51.66009800" lon="39.57410570">
        <ele>116.00000</ele>
        <time>2010-01-01T16:53:04Z</time>
      </trkpt>
      <trkpt lat="51.65824770" lon="39.57286110">
        <ele>114.00000</ele>
        <time>2010-01-01T16:54:24Z</time>
      </trkpt>
      <trkpt lat="51.65763540" lon="39.57286110">
        <ele>115.00000</ele>
        <time>2010-01-01T16:54:49Z</time>
      </trkpt>
      <trkpt lat="51.65637080" lon="39.57249640">
        <ele>120.00000</ele>
        <time>2010-01-01T16:55:40Z</time>
      </trkpt>
      <trkpt lat="51.65553210" lon="39.57268950">
        <ele>121.00000</ele>
        <time>2010-01-01T16:56:14Z</time>
      </trkpt>
      <trkpt lat="51.65460030" lon="39.57245340">
        <ele>122.00000</ele>
        <time>2010-01-01T16:56:52Z</time>
      </trkpt>
      <trkpt lat="51.65417430" lon="39.57234620">
        <ele>121.00000</ele>
        <time>2010-01-01T16:57:09Z</time>
      </trkpt>
      <trkpt lat="51.65270990" lon="39.57159510">
        <ele>123.00000</ele>
        <time>2010-01-01T16:58:11Z</time>
      </trkpt>
      <trkpt lat="51.65111230" lon="39.57127330">
        <ele>117.00000</ele>
        <time>2010-01-01T16:59:15Z</time>
      </trkpt>
      <trkpt lat="51.65036680" lon="39.57047930">
        <ele>113.00000</ele>
        <time>2010-01-01T16:59:51Z</time>
      </trkpt>
      <trkpt lat="51.64970110" lon="39.57017890">
        <ele>113.00000</ele>
        <time>2010-01-01T17:00:19Z</time>
      </trkpt>
      <trkpt lat="51.64899540" lon="39.57050080">
        <ele>113.00000</ele>
        <time>2010-01-01T17:00:48Z</time>
      </trkpt>
      <trkpt lat="51.64838300" lon="39.57082270">
        <ele>111.00000</ele>
        <time>2010-01-01T17:01:14Z</time>
      </trkpt>
      <trkpt lat="51.64769070" lon="39.57084410">
        <ele>109.00000</ele>
        <time>2010-01-01T17:01:42Z</time>
      </trkpt>
      <trkpt lat="51.64703820" lon="39.57093000">
        <ele>106.00000</ele>
        <time>2010-01-01T17:02:08Z</time>
      </trkpt>
      <trkpt lat="51.64629260" lon="39.57168100">
        <ele>105.00000</ele>
        <time>2010-01-01T17:02:43Z</time>
      </trkpt>
      <trkpt lat="51.64554700" lon="39.57211010">
        <ele>106.00000</ele>
        <time>2010-01-01T17:03:15Z</time>
      </trkpt>
      <trkpt lat="51.64502770" lon="39.57206720">
        <ele>107.00000</ele>
        <time>2010-01-01T17:03:35Z</time>
      </trkpt>
      <trkpt lat="51.64332330" lon="39.57204580">
        <ele>107.00000</ele>
        <time>2010-01-01T17:04:44Z</time>
      </trkpt>
      <trkpt lat="51.64247110" lon="39.57251780">
        <ele>107.00000</ele>
        <time>2010-01-01T17:05:20Z</time>
      </trkpt>
      <trkpt lat="51.64215150" lon="39.57245340">
        <ele>107.00000</ele>
        <time>2010-01-01T17:05:33Z</time>
      </trkpt>
      <trkpt lat="51.64204500" lon="39.57371950">
        <ele>105.00000</ele>
        <time>2010-01-01T17:06:04Z</time>
      </trkpt>
      <trkpt lat="51.64187190" lon="39.57406280">
        <ele>104.00000</ele>
        <time>2010-01-01T17:06:15Z</time>
      </trkpt>
      <trkpt lat="51.64133920" lon="39.57438460">
        <ele>106.00000</ele>
        <time>2010-01-01T17:06:38Z</time>
      </trkpt>
      <trkpt lat="51.64091310" lon="39.57492110">
        <ele>106.00000</ele>
        <time>2010-01-01T17:07:00Z</time>
      </trkpt>
      <trkpt lat="51.64056690" lon="39.57509270">
        <ele>105.00000</ele>
        <time>2010-01-01T17:07:14Z</time>
      </trkpt>
      <trkpt lat="51.63998100" lon="39.57479230">
        <ele>104.00000</ele>
        <time>2010-01-01T17:07:39Z</time>
      </trkpt>
      <trkpt lat="51.63947490" lon="39.57459920">
        <ele>105.00000</ele>
        <time>2010-01-01T17:08:00Z</time>
      </trkpt>
      <trkpt lat="51.63870260" lon="39.57479230">
        <ele>104.00000</ele>
        <time>2010-01-01T17:08:31Z</time>
      </trkpt>
      <trkpt lat="51.63742410" lon="39.57515710">
        <ele>105.00000</ele>
        <time>2010-01-01T17:09:23Z</time>
      </trkpt>
      <trkpt lat="51.63679820" lon="39.57515710">
        <ele>107.00000</ele>
        <time>2010-01-01T17:09:48Z</time>
      </trkpt>
      <trkpt lat="51.63635870" lon="39.57500690">
        <ele>109.00000</ele>
        <time>2010-01-01T17:10:06Z</time>
      </trkpt>
      <trkpt lat="51.63603910" lon="39.57494250">
        <ele>109.00000</ele>
        <time>2010-01-01T17:10:19Z</time>
      </trkpt>
      <trkpt lat="51.63555960" lon="39.57455630">
        <ele>108.00000</ele>
        <time>2010-01-01T17:10:40Z</time>
      </trkpt>
      <trkpt lat="51.63488040" lon="39.57427740">
        <ele>107.00000</ele>
        <time>2010-01-01T17:11:08Z</time>
      </trkpt>
      <trkpt lat="51.63425440" lon="39.57401990">
        <ele>109.00000</ele>
        <time>2010-01-01T17:11:34Z</time>
      </trkpt>
      <trkpt lat="51.63406800" lon="39.57391260">
        <ele>110.00000</ele>
        <time>2010-01-01T17:11:42Z</time>
      </trkpt>
      <trkpt lat="51.63430770" lon="39.57333320">
        <ele>109.00000</ele>
        <time>2010-01-01T17:12:00Z</time>
      </trkpt>
      <trkpt lat="51.63460070" lon="39.57241050">
        <ele>115.00000</ele>
        <time>2010-01-01T17:12:25Z</time>
      </trkpt>
      <trkpt lat="51.63480050" lon="39.57187410">
        <ele>119.00000</ele>
        <time>2010-01-01T17:12:41Z</time>
      </trkpt>
      <trkpt lat="51.63493370" lon="39.57125180">
        <ele>122.00000</ele>
        <time>2010-01-01T17:12:57Z</time>
      </trkpt>
      <trkpt lat="51.63496030" lon="39.57060810">
        <ele>124.00000</ele>
        <time>2010-01-01T17:13:13Z</time>
      </trkpt>
      <trkpt lat="51.63510680" lon="39.56932060">
        <ele>124.00000</ele>
        <time>2010-01-01T17:13:46Z</time>
      </trkpt>
      <trkpt lat="51.63508020" lon="39.56884860">
        <ele>124.00000</ele>
        <time>2010-01-01T17:13:57Z</time>
      </trkpt>
      <trkpt lat="51.63514680" lon="39.56775420">
        <ele>122.00000</ele>
        <time>2010-01-01T17:14:25Z</time>
      </trkpt>
      <trkpt lat="51.63554630" lon="39.55985780">
        <ele>137.00000</ele>
        <time>2010-01-01T17:17:42Z</time>
      </trkpt>
      <trkpt lat="51.63571940" lon="39.55784080">
        <ele>133.00000</ele>
        <time>2010-01-01T17:18:32Z</time>
      </trkpt>
      <trkpt lat="51.63597250" lon="39.55354920">
        <ele>146.00000</ele>
        <time>2010-01-01T17:20:19Z</time>
      </trkpt>
      <trkpt lat="51.63602580" lon="39.55290550">
        <ele>144.00000</ele>
        <time>2010-01-01T17:20:35Z</time>
      </trkpt>
      <trkpt lat="51.63602580" lon="39.55048080">
        <ele>141.00000</ele>
        <time>2010-01-01T17:21:36Z</time>
      </trkpt>
      <trkpt lat="51.63622550" lon="39.54764840">
        <ele>146.00000</ele>
        <time>2010-01-01T17:22:47Z</time>
      </trkpt>
      <trkpt lat="51.63633210" lon="39.54483740">
        <ele>147.00000</ele>
        <time>2010-01-01T17:23:57Z</time>
      </trkpt>
      <trkpt lat="51.63541310" lon="39.54492330">
        <ele>147.00000</ele>
        <time>2010-01-01T17:24:33Z</time>
      </trkpt>
      <trkpt lat="51.63334880" lon="39.54522370">
        <ele>145.00000</ele>
        <time>2010-01-01T17:25:56Z</time>
      </trkpt>
      <trkpt lat="51.63045860" lon="39.54558840">
        <ele>141.00000</ele>
        <time>2010-01-01T17:27:52Z</time>
      </trkpt>
      <trkpt lat="51.62688880" lon="39.54606050">
        <ele>136.00000</ele>
        <time>2010-01-01T17:30:16Z</time>
      </trkpt>
      <trkpt lat="51.62530360" lon="39.54625360">
        <ele>131.00000</ele>
        <time>2010-01-01T17:31:19Z</time>
      </trkpt>
      <trkpt lat="51.62262610" lon="39.54571720">
        <ele>118.00000</ele>
        <time>2010-01-01T17:33:07Z</time>
      </trkpt>
      <trkpt lat="51.62251950" lon="39.54503050">
        <ele>119.00000</ele>
        <time>2010-01-01T17:33:25Z</time>
      </trkpt>
      <trkpt lat="51.62259940" lon="39.54417220">
        <ele>119.00000</ele>
        <time>2010-01-01T17:33:47Z</time>
      </trkpt>
      <trkpt lat="51.62931310" lon="39.52464580">
        <ele>118.00000</ele>
        <time>2010-01-01T17:43:01Z</time>
      </trkpt>
      <trkpt lat="51.63083150" lon="39.52009670">
        <ele>113.00000</ele>
        <time>2010-01-01T17:45:10Z</time>
      </trkpt>
      <trkpt lat="51.63328220" lon="39.51271530">
        <ele>121.00000</ele>
        <time>2010-01-01T17:48:38Z</time>
      </trkpt>
      <trkpt lat="51.63432100" lon="39.50988290">
        <ele>127.00000</ele>
        <time>2010-01-01T17:49:59Z</time>
      </trkpt>
      <trkpt lat="51.63693140" lon="39.50451850">
        <ele>145.00000</ele>
        <time>2010-01-01T17:52:49Z</time>
      </trkpt>
      <trkpt lat="51.64004760" lon="39.49842450">
        <ele>144.00000</ele>
        <time>2010-01-01T17:56:05Z</time>
      </trkpt>
      <trkpt lat="51.64161890" lon="39.49121470">
        <ele>146.00000</ele>
        <time>2010-01-01T17:59:15Z</time>
      </trkpt>
      <trkpt lat="51.64425540" lon="39.48190210">
        <ele>147.00000</ele>
        <time>2010-01-01T18:03:29Z</time>
      </trkpt>
      <trkpt lat="51.64811670" lon="39.46864120">
        <ele>147.00000</ele>
        <time>2010-01-01T18:09:33Z</time>
      </trkpt>
      <trkpt lat="51.64979430" lon="39.46284770">
        <ele>152.00000</ele>
        <time>2010-01-01T18:12:12Z</time>
      </trkpt>
      <trkpt lat="51.65067300" lon="39.46117400">
        <ele>153.00000</ele>
        <time>2010-01-01T18:13:06Z</time>
      </trkpt>
      <trkpt lat="51.65187120" lon="39.45855610">
        <ele>149.00000</ele>
        <time>2010-01-01T18:14:27Z</time>
      </trkpt>
      <trkpt lat="51.65259010" lon="39.45443630">
        <ele>147.00000</ele>
        <time>2010-01-01T18:16:13Z</time>
      </trkpt>
      <trkpt lat="51.65330900" lon="39.45091720">
        <ele>147.00000</ele>
        <time>2010-01-01T18:17:45Z</time>
      </trkpt>
      <trkpt lat="51.65509280" lon="39.44375030">
        <ele>139.00000</ele>
        <time>2010-01-01T18:20:57Z</time>
      </trkpt>
      <trkpt lat="51.65730260" lon="39.43546770">
        <ele>128.00000</ele>
        <time>2010-01-01T18:24:41Z</time>
      </trkpt>
      <trkpt lat="51.65440060" lon="39.43018910">
        <ele>122.00000</ele>
        <time>2010-01-01T18:27:36Z</time>
      </trkpt>
      <trkpt lat="51.65213740" lon="39.42641250">
        <ele>122.00000</ele>
        <time>2010-01-01T18:29:46Z</time>
      </trkpt>
      <trkpt lat="51.64870250" lon="39.42006110">
        <ele>117.00000</ele>
        <time>2010-01-01T18:33:16Z</time>
      </trkpt>
      <trkpt lat="51.64907530" lon="39.41885940">
        <ele>115.00000</ele>
        <time>2010-01-01T18:33:49Z</time>
      </trkpt>
      <trkpt lat="51.64931500" lon="39.41568370">
        <ele>108.00000</ele>
        <time>2010-01-01T18:35:09Z</time>
      </trkpt>
      <trkpt lat="51.64998070" lon="39.41280840">
        <ele>107.00000</ele>
        <time>2010-01-01T18:36:25Z</time>
      </trkpt>
      <trkpt lat="51.65301610" lon="39.40916060">
        <ele>113.00000</ele>
        <time>2010-01-01T18:38:56Z</time>
      </trkpt>
      <trkpt lat="51.65738250" lon="39.40491190">
        <ele>119.00000</ele>
        <time>2010-01-01T18:42:20Z</time>
      </trkpt>
      <trkpt lat="51.65818120" lon="39.40353870">
        <ele>119.00000</ele>
        <time>2010-01-01T18:43:07Z</time>
      </trkpt>
      <trkpt lat="51.65911300" lon="39.40165040">
        <ele>118.00000</ele>
        <time>2010-01-01T18:44:07Z</time>
      </trkpt>
      <trkpt lat="51.66023110" lon="39.40087790">
        <ele>118.00000</ele>
        <time>2010-01-01T18:44:56Z</time>
      </trkpt>
      <trkpt lat="51.66126930" lon="39.40083500">
        <ele>118.00000</ele>
        <time>2010-01-01T18:45:37Z</time>
      </trkpt>
      <trkpt lat="51.66217440" lon="39.40156450">
        <ele>119.00000</ele>
        <time>2010-01-01T18:46:18Z</time>
      </trkpt>
      <trkpt lat="51.66457010" lon="39.40315240">
        <ele>111.00000</ele>
        <time>2010-01-01T18:48:02Z</time>
      </trkpt>
      <trkpt lat="51.66574140" lon="39.40409660">
        <ele>111.00000</ele>
        <time>2010-01-01T18:48:54Z</time>
      </trkpt>
      <trkpt lat="51.66696580" lon="39.40491190">
        <ele>113.00000</ele>
        <time>2010-01-01T18:49:47Z</time>
      </trkpt>
      <trkpt lat="51.66779090" lon="39.40534110">
        <ele>112.00000</ele>
        <time>2010-01-01T18:50:22Z</time>
      </trkpt>
      <trkpt lat="51.67180990" lon="39.40645690">
        <ele>113.00000</ele>
        <time>2010-01-01T18:53:05Z</time>
      </trkpt>
      <trkpt lat="51.67335350" lon="39.40680020">
        <ele>116.00000</ele>
        <time>2010-01-01T18:54:07Z</time>
      </trkpt>
      <trkpt lat="51.67457770" lon="39.40697190">
        <ele>116.00000</ele>
        <time>2010-01-01T18:54:57Z</time>
      </trkpt>
      <trkpt lat="51.67883560" lon="39.40371030">
        <ele>107.00000</ele>
        <time>2010-01-01T18:58:05Z</time>
      </trkpt>
      <trkpt lat="51.67939440" lon="39.40177910">
        <ele>108.00000</ele>
        <time>2010-01-01T18:58:58Z</time>
      </trkpt>
      <trkpt lat="51.67984680" lon="39.39868920">
        <ele>109.00000</ele>
        <time>2010-01-01T19:00:17Z</time>
      </trkpt>
      <trkpt lat="51.68037900" lon="39.39765930">
        <ele>108.00000</ele>
        <time>2010-01-01T19:00:50Z</time>
      </trkpt>
      <trkpt lat="51.68120390" lon="39.39671510">
        <ele>113.00000</ele>
        <time>2010-01-01T19:01:31Z</time>
      </trkpt>
      <trkpt lat="51.68208200" lon="39.39637180">
        <ele>116.00000</ele>
        <time>2010-01-01T19:02:07Z</time>
      </trkpt>
      <trkpt lat="51.68378490" lon="39.39658640">
        <ele>127.00000</ele>
        <time>2010-01-01T19:03:15Z</time>
      </trkpt>
      <trkpt lat="51.68750980" lon="39.39692970">
        <ele>133.00000</ele>
        <time>2010-01-01T19:05:45Z</time>
      </trkpt>
      <trkpt lat="51.68915930" lon="39.39581390">
        <ele>131.00000</ele>
        <time>2010-01-01T19:06:56Z</time>
      </trkpt>
      <trkpt lat="51.69142060" lon="39.39401140">
        <ele>128.00000</ele>
        <time>2010-01-01T19:08:37Z</time>
      </trkpt>
      <trkpt lat="51.69232510" lon="39.39263820">
        <ele>127.00000</ele>
        <time>2010-01-01T19:09:27Z</time>
      </trkpt>
      <trkpt lat="51.69285720" lon="39.39117900">
        <ele>124.00000</ele>
        <time>2010-01-01T19:10:09Z</time>
      </trkpt>
      <trkpt lat="51.69314980" lon="39.38967700">
        <ele>123.00000</ele>
        <time>2010-01-01T19:10:48Z</time>
      </trkpt>
      <trkpt lat="51.69336260" lon="39.38774580">
        <ele>120.00000</ele>
        <time>2010-01-01T19:11:37Z</time>
      </trkpt>
      <trkpt lat="51.69386800" lon="39.38607210">
        <ele>117.00000</ele>
        <time>2010-01-01T19:12:23Z</time>
      </trkpt>
      <trkpt lat="51.69490550" lon="39.38379760">
        <ele>110.00000</ele>
        <time>2010-01-01T19:13:33Z</time>
      </trkpt>
      <trkpt lat="51.69583650" lon="39.38160890">
        <ele>115.00000</ele>
        <time>2010-01-01T19:14:39Z</time>
      </trkpt>
      <trkpt lat="51.69541090" lon="39.38109390">
        <ele>111.00000</ele>
        <time>2010-01-01T19:15:00Z</time>
      </trkpt>
      <trkpt lat="51.69506510" lon="39.38087940">
        <ele>109.00000</ele>
        <time>2010-01-01T19:15:15Z</time>
      </trkpt>
      <trkpt lat="51.69421380" lon="39.38105100">
        <ele>108.00000</ele>
        <time>2010-01-01T19:15:49Z</time>
      </trkpt>
      <trkpt lat="51.69336260" lon="39.37817570">
        <ele>104.00000</ele>
        <time>2010-01-01T19:17:08Z</time>
      </trkpt>
      <trkpt lat="51.69134080" lon="39.36882010">
        <ele>105.00000</ele>
        <time>2010-01-01T19:21:14Z</time>
      </trkpt>
      <trkpt lat="51.69001060" lon="39.36289780">
        <ele>100.00000</ele>
        <time>2010-01-01T19:23:50Z</time>
      </trkpt>
      <trkpt lat="51.68958500" lon="39.36113830">
        <ele>102.00000</ele>
        <time>2010-01-01T19:24:37Z</time>
      </trkpt>
      <trkpt lat="51.68758960" lon="39.35585970">
        <ele>101.00000</ele>
        <time>2010-01-01T19:27:11Z</time>
      </trkpt>
      <trkpt lat="51.68641900" lon="39.35349940">
        <ele>100.00000</ele>
        <time>2010-01-01T19:28:26Z</time>
      </trkpt>
      <trkpt lat="51.68439690" lon="39.34972280">
        <ele>99.000000</ele>
        <time>2010-01-01T19:30:30Z</time>
      </trkpt>
      <trkpt lat="51.68176270" lon="39.34483050">
        <ele>103.00000</ele>
        <time>2010-01-01T19:33:10Z</time>
      </trkpt>
      <trkpt lat="51.67952750" lon="39.34045310">
        <ele>100.00000</ele>
        <time>2010-01-01T19:35:31Z</time>
      </trkpt>
      <trkpt lat="51.67787760" lon="39.33654780">
        <ele>100.00000</ele>
        <time>2010-01-01T19:37:29Z</time>
      </trkpt>
      <trkpt lat="51.67713250" lon="39.33350080">
        <ele>100.00000</ele>
        <time>2010-01-01T19:38:50Z</time>
      </trkpt>
      <trkpt lat="51.67689300" lon="39.32959550">
        <ele>103.00000</ele>
        <time>2010-01-01T19:40:27Z</time>
      </trkpt>
      <trkpt lat="51.67710590" lon="39.32474610">
        <ele>104.00000</ele>
        <time>2010-01-01T19:42:28Z</time>
      </trkpt>
      <trkpt lat="51.67758490" lon="39.31178560">
        <ele>111.00000</ele>
        <time>2010-01-01T19:47:50Z</time>
      </trkpt>
      <trkpt lat="51.67782440" lon="39.30376050">
        <ele>111.00000</ele>
        <time>2010-01-01T19:51:10Z</time>
      </trkpt>
      <trkpt lat="51.67814370" lon="39.29994100">
        <ele>108.00000</ele>
        <time>2010-01-01T19:52:45Z</time>
      </trkpt>
      <trkpt lat="51.67819690" lon="39.29715150">
        <ele>106.00000</ele>
        <time>2010-01-01T19:53:55Z</time>
      </trkpt>
      <trkpt lat="51.67851630" lon="39.29358950">
        <ele>106.00000</ele>
        <time>2010-01-01T19:55:24Z</time>
      </trkpt>
      <trkpt lat="51.67968710" lon="39.28839680">
        <ele>106.00000</ele>
        <time>2010-01-01T19:57:41Z</time>
      </trkpt>
      <trkpt lat="51.68112400" lon="39.28286070">
        <ele>107.00000</ele>
        <time>2010-01-01T20:00:10Z</time>
      </trkpt>
      <trkpt lat="51.68221500" lon="39.27869790">
        <ele>112.00000</ele>
        <time>2010-01-01T20:02:02Z</time>
      </trkpt>
      <trkpt lat="51.68455650" lon="39.27002900">
        <ele>111.00000</ele>
        <time>2010-01-01T20:05:57Z</time>
      </trkpt>
      <trkpt lat="51.68564740" lon="39.26565170">
        <ele>109.00000</ele>
        <time>2010-01-01T20:07:54Z</time>
      </trkpt>
      <trkpt lat="51.68583360" lon="39.26517960">
        <ele>108.00000</ele>
        <time>2010-01-01T20:08:08Z</time>
      </trkpt>
      <trkpt lat="51.68655200" lon="39.26505080">
        <ele>106.00000</ele>
        <time>2010-01-01T20:08:37Z</time>
      </trkpt>
      <trkpt lat="51.68671160" lon="39.26423540">
        <ele>107.00000</ele>
        <time>2010-01-01T20:08:58Z</time>
      </trkpt>
      <trkpt lat="51.68641900" lon="39.26363460">
        <ele>108.00000</ele>
        <time>2010-01-01T20:09:17Z</time>
      </trkpt>
      <trkpt lat="51.68607310" lon="39.26290510">
        <ele>108.00000</ele>
        <time>2010-01-01T20:09:40Z</time>
      </trkpt>
      <trkpt lat="51.68575380" lon="39.26247590">
        <ele>106.00000</ele>
        <time>2010-01-01T20:09:56Z</time>
      </trkpt>
    </trkseg>
  </trk>
</gpx>

